Time;durP1;ratioP1;P1;durP2;ratioP2;P2;SDS_P1;SDS_P2;PMS_P1;PMS_P2;Temp;Humidity;BMP_temperature;BMP_pressure;BME280_temperature;BME280_humidity;BME280_pressure;Samples;Min_cycle;Max_cycle;Signal;HPM_P1;HPM_P2
2021/12/12 00:04:44;;;;;;;44.80;25.50;;;;;;;3.03;65.88;99521.28;212043;1329;139580;-62
2021/12/12 00:09:56;;;;;;;41.00;21.70;;;;;;;3.04;65.57;99531.08;212571;1328;138979;-61
2021/12/12 00:14:59;;;;;;;41.70;23.00;;;;;;;3.02;65.54;99537.60;212262;1326;140122;-60
2021/12/12 00:20:03;;;;;;;43.60;22.90;;;;;;;3.00;65.36;99545.35;212735;1324;139242;-61
2021/12/12 00:25:08;;;;;;;41.90;22.30;;;;;;;2.96;65.27;99561.06;212975;1325;139080;-63
2021/12/12 00:30:13;;;;;;;43.00;23.80;;;;;;;2.92;65.10;99572.39;212890;1326;138854;-62
2021/12/12 00:35:17;;;;;;;46.70;25.50;;;;;;;2.88;65.11;99577.88;213628;1324;139229;-63
2021/12/12 00:40:28;;;;;;;44.60;24.80;;;;;;;2.87;65.08;99580.54;213133;1326;139215;-58
2021/12/12 00:45:31;;;;;;;45.70;24.00;;;;;;;2.88;65.19;99581.20;212787;1326;138925;-64
2021/12/12 00:50:39;;;;;;;42.00;22.60;;;;;;;2.87;65.07;99570.04;212727;1323;142298;-64
2021/12/12 00:55:44;;;;;;;43.70;25.00;;;;;;;2.87;64.87;99571.42;212553;1323;140244;-63
2021/12/12 01:00:55;;;;;;;44.70;25.30;;;;;;;2.90;64.86;99578.55;212904;1321;139738;-63
2021/12/12 01:06:00;;;;;;;44.40;23.80;;;;;;;2.94;64.91;99577.58;212380;1324;139157;-62
2021/12/12 01:11:11;;;;;;;44.30;24.10;;;;;;;2.94;64.80;99587.55;212713;1325;139496;-63
2021/12/12 01:16:40;;;;;;;43.00;25.20;;;;;;;2.95;64.78;99581.77;213064;1322;139441;-66
2021/12/12 01:21:49;;;;;;;43.10;24.10;;;;;;;2.94;64.61;99573.72;212735;1319;141563;-63
2021/12/12 01:26:54;;;;;;;46.60;24.80;;;;;;;2.96;64.56;99581.04;212399;1322;139422;-67
2021/12/12 01:32:00;;;;;;;47.20;25.70;;;;;;;2.95;64.57;99581.40;213401;1322;139725;-63
2021/12/12 01:37:36;;;;;;;50.80;27.70;;;;;;;2.94;64.48;99582.85;213410;1322;141808;-62
2021/12/12 01:42:48;;;;;;;60.90;30.50;;;;;;;2.92;64.57;99589.36;212392;1322;139446;-59
2021/12/12 01:47:57;;;;;;;62.20;31.70;;;;;;;2.93;64.46;99590.39;212272;1322;139226;-61
2021/12/12 01:53:04;;;;;;;58.80;32.90;;;;;;;2.95;64.40;99589.29;212075;1329;139799;-61
2021/12/12 01:58:12;;;;;;;66.00;34.40;;;;;;;2.98;64.56;99593.78;212486;1321;138832;-63
2021/12/12 02:03:19;;;;;;;63.90;32.70;;;;;;;3.02;64.50;99588.27;212389;1319;139492;-60
2021/12/12 02:08:24;;;;;;;61.90;33.40;;;;;;;3.04;64.62;99589.27;212434;1323;160517;-62
2021/12/12 02:13:31;;;;;;;59.50;31.80;;;;;;;3.02;64.39;99580.89;212585;1325;139609;-58
2021/12/12 02:18:38;;;;;;;61.10;32.40;;;;;;;2.97;64.47;99596.27;212875;1322;140295;-61
2021/12/12 02:39:38;;;;;;;70.90;33.90;;;;;;;2.74;64.58;99601.30;212112;1329;138995;-64
2021/12/12 02:44:43;;;;;;;73.10;36.80;;;;;;;2.67;64.50;99606.18;212733;1323;138995;-64
2021/12/12 02:49:57;;;;;;;79.30;38.60;;;;;;;2.61;64.59;99601.77;212662;1326;139687;-59
2021/12/12 02:55:08;;;;;;;79.40;41.00;;;;;;;2.54;64.88;99608.39;212443;1326;139128;-59
2021/12/12 03:00:17;;;;;;;77.20;38.40;;;;;;;2.53;64.95;99610.86;212904;1323;140329;-58
2021/12/12 03:05:21;;;;;;;80.20;40.10;;;;;;;2.54;64.99;99616.42;212561;1320;141294;-64
2021/12/12 03:10:29;;;;;;;77.00;38.70;;;;;;;2.56;65.21;99621.66;212246;1323;138769;-58
2021/12/12 03:15:38;;;;;;;72.00;35.40;;;;;;;2.58;65.30;99624.60;212716;1327;192959;-60
2021/12/12 03:20:52;;;;;;;68.30;36.30;;;;;;;2.60;65.28;99631.38;212536;1322;140090;-61
2021/12/12 03:26:01;;;;;;;68.20;34.40;;;;;;;2.57;65.16;99634.25;212471;1319;139403;-61
2021/12/12 03:31:08;;;;;;;68.30;35.10;;;;;;;2.54;65.18;99641.84;212828;1320;138638;-61
2021/12/12 03:36:14;;;;;;;61.90;33.40;;;;;;;2.51;65.29;99649.60;212695;1323;139024;-64
2021/12/12 03:41:21;;;;;;;62.20;33.70;;;;;;;2.49;65.34;99646.31;212433;1326;139089;-59
2021/12/12 03:46:25;;;;;;;58.40;31.30;;;;;;;2.45;65.34;99645.35;212596;1326;139412;-61
2021/12/12 03:51:29;;;;;;;65.30;33.30;;;;;;;2.41;65.30;99642.09;212507;1325;139938;-64
2021/12/12 03:56:34;;;;;;;69.40;35.30;;;;;;;2.38;65.45;99654.75;212358;1327;139431;-63
2021/12/12 04:01:44;;;;;;;65.90;33.40;;;;;;;2.38;65.43;99660.54;212618;1322;140959;-63
2021/12/12 04:06:50;;;;;;;65.90;32.50;;;;;;;2.43;65.55;99664.98;212395;1322;140191;-59
2021/12/12 04:11:56;;;;;;;60.60;32.50;;;;;;;2.51;65.57;99665.34;212486;1325;139574;-62
2021/12/12 04:17:05;;;;;;;56.80;31.20;;;;;;;2.59;65.57;99663.81;212506;1326;138868;-61
2021/12/12 04:22:09;;;;;;;58.10;31.40;;;;;;;2.63;65.57;99664.60;212623;1322;139477;-62
2021/12/12 04:27:14;;;;;;;51.80;28.90;;;;;;;2.65;65.35;99667.91;212846;1322;138875;-60
2021/12/12 04:32:24;;;;;;;49.60;27.30;;;;;;;2.66;65.23;99666.65;213289;1323;138897;-61
2021/12/12 04:37:28;;;;;;;50.60;27.70;;;;;;;2.71;65.34;99667.44;212846;1322;138870;-61
2021/12/12 04:42:35;;;;;;;43.30;24.80;;;;;;;2.74;65.21;99665.79;212371;1327;140385;-56
2021/12/12 04:53:21;;;;;;;;;;;;;;;2.82;64.88;99678.77;213156;1319;139189;-63
2021/12/12 04:58:43;;;;;;;38.70;21.60;;;;;;;2.83;64.68;99687.86;212862;1326;126051;-60
2021/12/12 05:03:47;;;;;;;42.10;24.90;;;;;;;2.86;64.68;99703.05;212234;1319;140676;-61
2021/12/12 05:09:12;;;;;;;48.80;25.80;;;;;;;2.83;64.63;99724.30;212740;1322;140037;-58
2021/12/12 05:14:22;;;;;;;45.40;26.50;;;;;;;2.79;64.72;99729.12;212698;1322;138735;-61
2021/12/12 05:19:28;;;;;;;47.00;25.60;;;;;;;2.74;64.44;99729.73;213347;1319;138953;-61
2021/12/12 05:24:34;;;;;;;47.80;27.00;;;;;;;2.72;64.57;99736.80;212370;1322;139453;-58
2021/12/12 05:29:41;;;;;;;60.30;30.60;;;;;;;2.71;64.70;99740.48;212248;1322;138916;-59
2021/12/12 05:34:49;;;;;;;55.50;29.50;;;;;;;2.74;64.67;99746.38;212378;1327;141248;-60
2021/12/12 05:39:53;;;;;;;51.80;28.50;;;;;;;2.80;64.64;99750.80;212511;1319;139783;-68
2021/12/12 05:44:59;;;;;;;55.10;30.30;;;;;;;2.83;64.57;99757.06;211878;1331;139009;-59
2021/12/12 05:50:05;;;;;;;60.60;32.30;;;;;;;2.81;64.56;99759.57;213104;1322;139303;-59
2021/12/12 05:55:10;;;;;;;66.30;34.60;;;;;;;2.76;64.58;99758.78;213050;1322;140301;-58
2021/12/12 06:00:16;;;;;;;70.70;35.90;;;;;;;2.70;64.60;99760.98;213147;1322;138899;-64
2021/12/12 06:05:19;;;;;;;66.50;35.40;;;;;;;2.65;64.59;99763.19;212270;1328;139210;-58
2021/12/12 06:10:23;;;;;;;69.80;35.80;;;;;;;2.64;64.79;99759.54;212994;1322;139960;-65
2021/12/12 06:15:30;;;;;;;70.00;35.20;;;;;;;2.64;64.99;99773.19;212937;1322;138584;-58
2021/12/12 06:20:33;;;;;;;64.70;35.10;;;;;;;2.61;64.86;99779.56;212207;1334;138643;-61
2021/12/12 06:25:38;;;;;;;70.00;36.70;;;;;;;2.55;64.79;99779.13;212140;1322;140093;-66
2021/12/12 06:30:41;;;;;;;80.10;41.30;;;;;;;2.51;65.07;99780.60;212056;1322;139943;-60
2021/12/12 06:35:45;;;;;;;83.20;41.60;;;;;;;2.53;65.13;99794.77;213038;1322;139799;-59
2021/12/12 06:40:50;;;;;;;82.30;42.10;;;;;;;2.59;65.11;99788.52;212242;1330;140088;-61
2021/12/12 06:45:53;;;;;;;81.10;43.00;;;;;;;2.59;65.19;99785.02;213138;1322;139266;-60
2021/12/12 06:50:59;;;;;;;84.60;42.60;;;;;;;2.60;65.35;99782.88;212117;1326;139128;-66
2021/12/12 06:56:04;;;;;;;186.90;110.80;;;;;;;2.63;65.59;99779.34;212352;1322;139158;-62
2021/12/12 07:01:12;;;;;;;93.80;47.10;;;;;;;2.97;66.53;99785.38;212697;1326;139643;-61
2021/12/12 07:06:21;;;;;;;80.10;42.70;;;;;;;3.06;65.67;99784.83;212517;1326;139417;-63
2021/12/12 07:11:27;;;;;;;81.50;42.30;;;;;;;2.97;65.24;99778.35;213242;1323;139594;-62
2021/12/12 07:16:31;;;;;;;81.40;43.40;;;;;;;2.88;65.36;99773.97;213359;1322;139457;-56
2021/12/12 07:21:35;;;;;;;83.20;40.80;;;;;;;2.83;65.38;99770.92;212970;1322;138927;-60
2021/12/12 07:26:39;;;;;;;77.40;40.20;;;;;;;2.77;65.22;99774.53;211977;1329;139204;-58
2021/12/12 07:31:42;;;;;;;84.60;41.10;;;;;;;2.73;65.19;99782.32;211983;1329;138732;-58
2021/12/12 07:36:52;;;;;;;80.60;40.10;;;;;;;2.72;65.35;99786.20;212139;1325;141302;-60
2021/12/12 07:41:57;;;;;;;78.80;38.40;;;;;;;2.81;65.49;99780.77;212908;1322;140074;-60
2021/12/12 07:47:03;;;;;;;79.40;40.90;;;;;;;2.95;65.81;99779.45;213038;1326;139174;-64
2021/12/12 07:52:10;;;;;;;73.70;37.80;;;;;;;3.05;65.39;99774.88;212952;1324;138491;-63
2021/12/12 07:57:14;;;;;;;67.50;36.00;;;;;;;3.09;65.31;99773.04;213215;1322;139582;-59
2021/12/12 08:02:20;;;;;;;76.80;37.50;;;;;;;3.06;65.20;99774.14;212301;1322;138703;-62
2021/12/12 08:07:24;;;;;;;68.10;36.30;;;;;;;3.10;65.30;99773.38;212604;1322;141639;-59
2021/12/12 08:12:29;;;;;;;68.70;35.60;;;;;;;3.16;65.39;99787.98;212613;1322;138938;-60
2021/12/12 08:17:32;;;;;;;70.60;36.10;;;;;;;3.19;65.02;99792.31;212646;1323;139211;-67
2021/12/12 08:22:36;;;;;;;73.90;38.90;;;;;;;3.17;65.20;99802.16;212604;1326;139021;-60
2021/12/12 08:27:40;;;;;;;70.00;36.00;;;;;;;3.14;65.05;99797.83;213058;1321;139144;-60
2021/12/12 08:32:46;;;;;;;68.80;37.20;;;;;;;3.08;65.20;99796.91;212928;1323;138794;-65
2021/12/12 08:37:50;;;;;;;72.40;40.40;;;;;;;3.13;65.50;99803.83;212981;1322;140165;-67
2021/12/12 08:42:56;;;;;;;81.40;41.00;;;;;;;3.19;65.31;99802.99;212339;1326;138998;-61
2021/12/12 08:48:01;;;;;;;75.30;39.30;;;;;;;3.19;65.12;99800.19;213263;1326;139725;-61
2021/12/12 08:53:06;;;;;;;74.90;37.70;;;;;;;3.17;65.16;99800.05;212528;1325;140587;-60
2021/12/12 08:58:15;;;;;;;73.30;40.00;;;;;;;3.12;64.97;99797.90;212988;1322;140944;-58
2021/12/12 09:03:48;;;;;;;80.00;44.40;;;;;;;3.11;65.34;99796.68;212317;1328;140571;-63
2021/12/12 09:09:07;;;;;;;73.80;38.80;;;;;;;3.16;65.36;99794.65;212210;1322;138912;-63
2021/12/12 09:14:15;;;;;;;74.00;40.40;;;;;;;3.19;65.19;99791.95;212663;1322;139629;-58
2021/12/12 09:19:25;;;;;;;430.00;259.30;;;;;;;3.17;65.27;99793.23;212547;1325;140770;-62
2021/12/12 09:24:44;;;;;;;84.70;46.90;;;;;;;3.31;65.64;99791.55;213082;1320;139501;-59
2021/12/12 09:29:56;;;;;;;73.80;40.20;;;;;;;3.33;65.28;99782.38;213387;1322;138345;-64
2021/12/12 09:35:08;;;;;;;72.00;39.00;;;;;;;3.31;65.05;99780.31;212427;1323;138990;-66
2021/12/12 09:40:40;;;;;;;65.90;36.50;;;;;;;3.28;65.10;99776.69;213371;1320;139939;-60
2021/12/12 09:46:02;;;;;;;62.20;35.50;;;;;;;3.31;64.93;99776.46;212812;1321;138678;-63
2021/12/12 09:51:45;;;;;;;62.40;34.00;;;;;;;3.36;65.03;99776.52;212919;1322;139776;-64
2021/12/12 09:57:00;;;;;;;109.10;61.30;;;;;;;3.42;65.09;99763.08;212502;1322;139568;-60
2021/12/12 10:02:15;;;;;;;280.00;175.90;;;;;;;4.06;67.72;99756.86;213159;1320;140203;-62
2021/12/12 10:07:51;;;;;;;77.00;42.20;;;;;;;4.75;66.56;99757.95;212569;1322;139380;-61
2021/12/12 10:13:01;;;;;;;66.80;37.30;;;;;;;4.86;64.55;99752.03;213178;1320;138548;-61
2021/12/12 10:18:15;;;;;;;68.80;38.00;;;;;;;4.69;64.32;99752.84;212822;1319;139253;-63
2021/12/12 10:23:39;;;;;;;60.00;33.90;;;;;;;4.72;64.35;99756.79;212507;1326;140050;-61
2021/12/12 10:28:52;;;;;;;62.40;34.70;;;;;;;4.65;63.72;99757.52;212652;1322;139269;-61
2021/12/12 10:34:01;;;;;;;63.10;35.00;;;;;;;4.61;63.86;99763.23;213101;1325;139278;-63
2021/12/12 10:39:12;;;;;;;64.20;35.50;;;;;;;4.69;63.89;99762.15;212229;1324;140203;-62
2021/12/12 10:44:29;;;;;;;61.20;33.10;;;;;;;4.72;63.70;99759.95;212579;1323;138901;-61
2021/12/12 10:49:44;;;;;;;52.30;30.30;;;;;;;4.65;63.51;99759.27;213571;1320;139184;-61
2021/12/12 10:55:05;;;;;;;57.60;32.30;;;;;;;4.58;63.43;99755.23;212403;1322;139365;-61
2021/12/12 11:00:11;;;;;;;43.50;23.20;;;;;;;4.55;63.30;99757.95;213040;1323;140001;-61
2021/12/12 11:05:19;;;;;;;34.60;20.00;;;;;;;4.55;63.27;99751.27;212840;1322;139724;-60
2021/12/12 11:10:28;;;;;;;29.40;17.50;;;;;;;4.56;63.37;99747.39;212512;1325;139097;-61
2021/12/12 11:16:03;;;;;;;32.70;18.90;;;;;;;4.55;62.93;99740.21;213391;1324;185731;-61
2021/12/12 11:21:26;;;;;;;39.80;22.90;;;;;;;4.52;62.81;99734.66;212246;1322;141876;-61
2021/12/12 11:26:40;;;;;;;188.60;107.50;;;;;;;4.62;63.96;99733.15;212910;1325;139094;-61
2021/12/12 11:31:55;;;;;;;55.90;31.70;;;;;;;5.16;65.07;99729.37;212664;1322;141049;-61
2021/12/12 11:37:36;;;;;;;53.60;29.80;;;;;;;5.28;63.44;99728.13;212939;1325;139399;-65
2021/12/12 11:42:51;;;;;;;53.60;30.30;;;;;;;5.22;62.95;99726.57;212354;1326;139219;-62
2021/12/12 11:48:19;;;;;;;58.70;32.10;;;;;;;5.17;63.04;99722.48;212217;1329;139274;-62
2021/12/12 11:53:43;;;;;;;73.80;41.40;;;;;;;5.14;62.68;99731.36;213169;1325;139422;-61
2021/12/12 11:58:56;;;;;;;86.40;46.90;;;;;;;5.11;62.68;99736.91;212091;1324;139266;-61
2021/12/12 12:04:05;;;;;;;81.60;46.80;;;;;;;5.06;62.20;99743.56;212209;1322;139756;-61
2021/12/12 12:09:27;;;;;;;86.10;47.40;;;;;;;4.91;62.16;99751.69;212027;1325;139004;-61
2021/12/12 12:14:39;;;;;;;81.80;44.30;;;;;;;4.75;62.13;99749.34;212380;1328;139066;-61
2021/12/12 12:19:49;;;;;;;83.70;45.20;;;;;;;4.52;61.95;99757.84;212501;1322;139216;-60
2021/12/12 12:25:12;;;;;;;83.50;45.30;;;;;;;4.33;61.94;99759.21;212494;1328;139527;-61
2021/12/12 12:30:30;;;;;;;282.70;168.50;;;;;;;4.15;61.94;99765.80;212059;1322;139158;-62
2021/12/12 12:36:26;;;;;;;77.40;42.10;;;;;;;4.04;62.61;99773.27;212966;1322;139213;-61
2021/12/12 12:42:07;;;;;;;72.90;37.60;;;;;;;3.89;62.24;99773.97;212830;1322;139596;-60
2021/12/12 12:47:40;;;;;;;65.40;34.70;;;;;;;3.72;62.02;99778.56;213337;1325;139351;-61
2021/12/12 12:53:25;;;;;;;61.50;30.20;;;;;;;3.54;62.00;99779.84;212303;1330;138996;-61
2021/12/12 12:58:47;;;;;;;51.80;28.50;;;;;;;3.35;62.02;99784.96;212814;1319;138987;-60
2021/12/12 13:04:08;;;;;;;79.50;40.00;;;;;;;3.30;62.91;99787.71;211952;1328;138882;-60
2021/12/12 13:09:15;;;;;;;53.70;29.20;;;;;;;3.28;62.50;99797.39;212790;1322;139319;-59
2021/12/12 13:14:49;;;;;;;56.20;28.90;;;;;;;3.10;62.22;99810.89;212164;1322;138879;-60
2021/12/12 13:19:55;;;;;;;48.60;25.90;;;;;;;2.90;62.28;99822.32;213517;1322;138693;-62
2021/12/12 13:25:24;;;;;;;48.30;25.60;;;;;;;2.74;62.45;99835.91;211908;1329;139519;-60
2021/12/12 13:30:43;;;;;;;45.90;24.10;;;;;;;2.63;62.65;99832.08;212760;1322;139074;-63
2021/12/12 13:36:24;;;;;;;42.40;23.50;;;;;;;2.53;62.70;99834.88;212830;1322;139339;-60
2021/12/12 13:41:59;;;;;;;45.20;23.80;;;;;;;2.44;62.97;99839.21;213148;1325;139736;-62
2021/12/12 13:47:33;;;;;;;45.30;23.10;;;;;;;2.34;62.85;99842.88;213298;1325;138933;-64
2021/12/12 13:52:47;;;;;;;49.10;24.60;;;;;;;2.25;63.04;99836.88;212214;1320;140225;-62
2021/12/12 13:57:58;;;;;;;475.00;280.40;;;;;;;2.21;63.48;99840.46;212665;1328;141347;-59
2021/12/12 14:03:22;;;;;;;52.00;26.40;;;;;;;2.57;65.13;99844.77;212186;1329;139529;-61
2021/12/12 14:08:29;;;;;;;51.00;24.40;;;;;;;2.65;63.58;99848.16;212548;1322;139595;-59
2021/12/12 14:13:40;;;;;;;48.70;25.30;;;;;;;2.59;63.44;99853.16;212067;1329;139286;-59
2021/12/12 14:19:04;;;;;;;50.00;25.10;;;;;;;2.54;63.31;99852.17;212392;1328;139272;-57
2021/12/12 14:24:08;;;;;;;45.60;22.80;;;;;;;2.46;63.16;99858.96;212624;1323;139868;-61
2021/12/12 14:29:15;;;;;;;45.30;23.70;;;;;;;2.34;63.14;99861.96;212665;1325;140818;-62
2021/12/12 14:34:30;;;;;;;166.90;102.20;;;;;;;2.25;63.16;99864.03;212186;1323;139954;-61
2021/12/12 14:39:35;;;;;;;52.20;26.50;;;;;;;2.31;64.22;99866.73;211975;1331;139651;-65
2021/12/12 14:44:41;;;;;;;44.30;22.50;;;;;;;2.29;63.55;99864.48;211977;1328;139787;-61
2021/12/12 14:49:53;;;;;;;39.30;20.70;;;;;;;2.18;63.22;99865.54;212373;1329;140491;-60
2021/12/12 14:55:14;;;;;;;42.90;22.60;;;;;;;2.01;63.20;99874.00;212527;1328;141667;-59
2021/12/12 15:00:26;;;;;;;45.10;23.20;;;;;;;1.87;63.25;99881.88;213158;1328;139985;-59
2021/12/12 15:05:44;;;;;;;49.40;23.00;;;;;;;1.76;63.33;99898.12;213455;1327;139840;-64
2021/12/12 15:10:55;;;;;;;50.00;23.60;;;;;;;1.66;63.61;99898.77;212076;1330;138831;-60
2021/12/12 15:16:03;;;;;;;51.10;26.10;;;;;;;1.60;63.65;99902.16;212100;1328;139397;-60
2021/12/12 15:21:27;;;;;;;50.70;25.80;;;;;;;1.54;63.73;99898.21;212874;1325;138788;-62
2021/12/12 15:26:40;;;;;;;51.80;25.50;;;;;;;1.50;63.93;99899.13;212333;1328;139145;-61
2021/12/12 15:31:47;;;;;;;51.50;26.10;;;;;;;1.45;63.97;99895.35;212214;1329;138920;-61
2021/12/12 15:36:59;;;;;;;365.50;205.90;;;;;;;1.51;65.14;99903.66;212001;1324;138787;-61
2021/12/12 15:42:08;;;;;;;54.00;25.70;;;;;;;1.84;65.33;99907.46;212525;1329;139721;-58
2021/12/12 15:47:15;;;;;;;47.40;25.30;;;;;;;1.88;64.36;99915.27;213426;1322;139704;-59
2021/12/12 15:52:24;;;;;;;56.00;27.20;;;;;;;1.79;64.04;99917.85;212881;1326;140081;-60
2021/12/12 15:57:34;;;;;;;58.40;29.00;;;;;;;1.67;63.91;99924.11;212425;1329;140126;-60
2021/12/12 16:02:41;;;;;;;57.50;27.80;;;;;;;1.55;64.01;99920.41;212350;1328;139794;-61
2021/12/12 16:07:51;;;;;;;56.40;27.00;;;;;;;1.46;64.09;99921.73;212805;1326;139862;-60
2021/12/12 16:13:00;;;;;;;219.90;118.40;;;;;;;1.38;64.19;99921.81;212473;1322;138963;-59
2021/12/12 16:18:04;;;;;;;111.10;46.90;;;;;;;2.13;67.28;99910.75;212566;1326;139198;-61
2021/12/12 16:23:10;;;;;;;61.00;30.10;;;;;;;2.17;64.74;99909.48;212098;1326;139764;-60
2021/12/12 16:28:17;;;;;;;53.70;27.80;;;;;;;1.93;64.08;99919.60;212447;1323;139205;-59
2021/12/12 16:33:33;;;;;;;56.00;28.10;;;;;;;1.67;63.81;99925.69;212195;1328;138817;-57
2021/12/12 16:38:40;;;;;;;57.60;29.50;;;;;;;1.42;63.89;99931.03;212024;1328;138697;-59
2021/12/12 16:43:57;;;;;;;55.50;28.20;;;;;;;1.34;64.33;99929.03;211889;1331;140660;-59
2021/12/12 16:49:03;;;;;;;53.00;26.60;;;;;;;1.28;64.40;99925.23;212072;1328;138956;-60
2021/12/12 16:54:13;;;;;;;360.10;204.20;;;;;;;1.15;64.26;99924.14;212407;1331;138729;-61
2021/12/12 16:59:24;;;;;;;66.70;34.20;;;;;;;1.26;65.34;99928.23;212088;1326;139550;-62
2021/12/12 17:04:29;;;;;;;59.10;28.60;;;;;;;1.27;64.66;99924.02;212830;1323;139174;-59
2021/12/12 17:09:43;;;;;;;68.10;32.20;;;;;;;1.16;64.42;99932.35;213208;1327;141315;-59
2021/12/12 17:14:51;;;;;;;67.60;33.40;;;;;;;1.31;65.52;99931.86;212069;1330;141124;-60
2021/12/12 17:19:56;;;;;;;64.50;32.30;;;;;;;1.30;64.72;99932.73;212701;1322;139881;-60
2021/12/12 17:25:04;;;;;;;67.20;32.10;;;;;;;1.19;64.35;99927.25;211837;1331;139653;-60
2021/12/12 17:30:19;;;;;;;62.40;31.10;;;;;;;1.08;64.37;99921.23;212266;1331;139980;-60
2021/12/12 17:35:39;;;;;;;82.70;39.90;;;;;;;1.01;64.75;99920.96;212719;1325;139145;-62
2021/12/12 17:40:54;;;;;;;60.80;30.90;;;;;;;1.03;64.79;99917.10;212758;1325;139602;-62
2021/12/12 17:46:05;;;;;;;61.70;31.20;;;;;;;0.94;64.56;99916.13;212371;1323;138975;-61
2021/12/12 17:51:26;;;;;;;60.40;30.60;;;;;;;0.85;64.59;99916.03;213285;1322;138742;-60
2021/12/12 17:56:36;;;;;;;67.80;31.40;;;;;;;0.81;64.75;99911.54;212795;1326;139499;-59
2021/12/12 18:01:48;;;;;;;63.20;30.60;;;;;;;0.76;64.76;99910.52;212986;1325;141087;-60
2021/12/12 18:06:56;;;;;;;60.30;30.90;;;;;;;0.69;64.75;99920.19;212609;1323;139715;-63
2021/12/12 18:12:13;;;;;;;59.50;30.80;;;;;;;0.57;64.51;99915.38;212034;1330;139210;-59
2021/12/12 18:17:19;;;;;;;60.10;30.80;;;;;;;0.50;64.81;99919.63;212259;1325;138981;-61
2021/12/12 18:22:30;;;;;;;62.00;31.00;;;;;;;0.43;64.93;99925.43;212304;1322;139077;-59
2021/12/12 18:27:39;;;;;;;71.10;33.80;;;;;;;0.36;64.83;99925.13;212595;1326;139768;-66
2021/12/12 18:32:47;;;;;;;75.50;35.90;;;;;;;0.34;64.89;99928.11;212404;1325;139895;-61
2021/12/12 18:37:57;;;;;;;198.90;110.20;;;;;;;0.36;65.15;99936.81;212628;1322;139689;-61
2021/12/12 18:43:03;;;;;;;76.40;38.60;;;;;;;0.61;66.34;99938.05;211959;1331;142396;-59
2021/12/12 18:48:10;;;;;;;72.10;35.90;;;;;;;0.72;65.65;99939.55;213329;1322;139343;-64
2021/12/12 18:53:16;;;;;;;76.10;36.20;;;;;;;0.59;65.01;99945.74;212328;1327;138390;-61
2021/12/12 18:58:23;;;;;;;78.50;37.50;;;;;;;0.51;65.06;99948.60;212210;1330;138920;-60
2021/12/12 19:03:34;;;;;;;74.70;38.10;;;;;;;0.47;65.29;99946.16;212923;1323;140199;-61
2021/12/12 19:08:43;;;;;;;75.60;35.50;;;;;;;0.47;65.37;99940.06;212208;1322;139674;-60
2021/12/12 19:13:50;;;;;;;74.70;33.90;;;;;;;0.42;65.19;99927.88;212472;1325;230322;-62
2021/12/12 19:18:58;;;;;;;74.50;34.80;;;;;;;0.33;65.10;99921.13;212248;1328;139278;-59
2021/12/12 19:24:10;;;;;;;90.60;41.80;;;;;;;0.40;66.28;99919.86;212637;1322;140971;-60
2021/12/12 19:29:18;;;;;;;82.00;36.90;;;;;;;0.54;65.80;99912.27;213411;1322;139569;-60
2021/12/12 19:34:22;;;;;;;77.50;37.00;;;;;;;0.43;65.24;99917.58;212309;1325;140161;-58
2021/12/12 19:39:34;;;;;;;85.70;41.10;;;;;;;0.40;65.22;99912.00;212438;1329;139543;-60
2021/12/12 19:44:40;;;;;;;94.90;44.60;;;;;;;0.38;65.27;99914.13;212289;1323;139493;-59
2021/12/12 19:49:45;;;;;;;;;;;;;;;0.33;65.24;99921.14;212794;1324;140076;-60
2021/12/12 19:54:56;;;;;;;87.70;41.50;;;;;;;0.27;65.31;99915.23;212458;1327;125320;-58
2021/12/12 20:00:26;;;;;;;96.00;43.40;;;;;;;0.23;65.41;99904.78;212650;1322;139384;-62
2021/12/12 20:05:30;;;;;;;88.40;41.10;;;;;;;0.19;65.57;99907.78;212382;1325;140862;-58
2021/12/12 20:10:33;;;;;;;103.20;43.90;;;;;;;0.12;65.34;99907.13;212187;1328;138581;-61
2021/12/12 20:15:39;;;;;;;101.30;44.50;;;;;;;0.04;65.28;99907.86;212147;1322;138835;-60
2021/12/12 20:20:47;;;;;;;100.60;43.70;;;;;;;-0.04;65.37;99907.38;212219;1329;140227;-60
2021/12/12 20:26:01;;;;;;;106.00;48.00;;;;;;;-0.14;65.27;99893.48;211902;1331;139266;-61
2021/12/12 20:31:19;;;;;;;102.60;44.90;;;;;;;-0.20;65.36;99885.66;213135;1322;141758;-62
2021/12/12 20:36:39;;;;;;;111.20;46.90;;;;;;;-0.27;65.30;99892.66;213465;1322;139430;-58
2021/12/12 20:41:51;;;;;;;111.20;48.60;;;;;;;-0.33;65.47;99894.09;212119;1328;139168;-60
2021/12/12 20:47:05;;;;;;;105.10;48.50;;;;;;;-0.38;65.35;99895.16;212538;1322;139462;-60
2021/12/12 20:52:18;;;;;;;124.50;56.80;;;;;;;-0.39;65.79;99899.52;212245;1322;140019;-59
2021/12/12 20:57:37;;;;;;;128.30;62.10;;;;;;;-0.32;65.91;99896.70;212379;1322;140206;-58
2021/12/12 21:02:40;;;;;;;132.20;63.60;;;;;;;-0.27;66.08;99899.30;213114;1322;142169;-60
2021/12/12 21:07:48;;;;;;;159.10;72.30;;;;;;;-0.23;66.10;99898.59;212517;1322;140315;-55
2021/12/12 21:12:56;;;;;;;;;;;;;;;-0.23;66.26;99897.02;212040;1328;139891;-59
2021/12/12 21:18:01;;;;;;;144.50;69.40;;;;;;;-0.27;66.16;99895.29;212110;1329;125280;-57
2021/12/12 21:23:21;;;;;;;148.00;69.30;;;;;;;-0.28;66.23;99888.84;212650;1320;138832;-60
2021/12/12 21:28:32;;;;;;;146.50;71.00;;;;;;;-0.29;66.25;99875.42;212219;1330;139571;-59
2021/12/12 21:33:47;;;;;;;153.00;74.60;;;;;;;-0.35;66.31;99874.41;213064;1322;139578;-59
2021/12/12 21:38:55;;;;;;;159.70;75.40;;;;;;;-0.40;66.50;99896.57;212007;1322;139200;-57
2021/12/12 21:43:58;;;;;;;161.40;77.50;;;;;;;-0.36;66.61;99907.01;212454;1322;139461;-58
2021/12/12 21:49:01;;;;;;;159.30;73.20;;;;;;;-0.28;66.69;99910.80;213066;1326;139526;-58
2021/12/12 21:54:10;;;;;;;147.20;70.40;;;;;;;-0.26;66.50;99909.76;212734;1322;139312;-59
2021/12/12 21:59:15;;;;;;;153.20;71.20;;;;;;;-0.34;66.34;99897.23;212273;1329;139756;-61
2021/12/12 22:04:24;;;;;;;165.40;74.20;;;;;;;-0.34;66.33;99889.91;212358;1328;140555;-61
2021/12/12 22:09:40;;;;;;;140.30;66.90;;;;;;;-0.31;66.43;99880.66;212646;1325;139908;-60
2021/12/12 22:14:55;;;;;;;144.10;66.70;;;;;;;-0.31;66.26;99873.16;212935;1319;139354;-62
2021/12/12 22:20:04;;;;;;;140.50;68.30;;;;;;;-0.33;66.34;99867.41;212081;1329;139347;-57
2021/12/12 22:25:22;;;;;;;146.60;69.50;;;;;;;-0.32;66.42;99867.59;212850;1322;138996;-57
2021/12/12 22:30:32;;;;;;;137.10;66.80;;;;;;;-0.30;66.51;99864.63;212210;1322;139316;-59
2021/12/12 22:35:40;;;;;;;142.40;64.20;;;;;;;-0.35;66.32;99847.20;212267;1325;139356;-56
2021/12/12 22:40:52;;;;;;;135.90;65.40;;;;;;;-0.48;66.24;99842.04;212179;1325;139289;-61
2021/12/12 22:45:59;;;;;;;143.00;67.30;;;;;;;-0.53;66.51;99844.49;211997;1323;139238;-62
2021/12/12 22:51:14;;;;;;;150.70;68.10;;;;;;;-0.50;66.71;99839.42;212472;1325;139338;-61
2021/12/12 22:56:29;;;;;;;135.80;62.50;;;;;;;-0.43;66.76;99830.52;213602;1323;140201;-58
2021/12/12 23:01:39;;;;;;;143.60;67.60;;;;;;;-0.33;66.81;99836.40;213076;1322;140031;-59
2021/12/12 23:07:09;;;;;;;150.80;69.10;;;;;;;-0.29;66.65;99846.13;212667;1323;138755;-60
2021/12/12 23:12:38;;;;;;;147.90;68.40;;;;;;;-0.23;66.85;99842.79;213079;1323;139126;-58
2021/12/12 23:17:46;;;;;;;148.30;70.10;;;;;;;-0.23;66.64;99842.98;212120;1322;139605;-60
2021/12/12 23:22:50;;;;;;;157.30;70.80;;;;;;;-0.24;66.65;99831.11;212417;1323;138778;-57
2021/12/12 23:33:23;;;;;;;146.40;72.60;;;;;;;-0.23;66.55;99832.67;213102;1322;139482;-58
2021/12/12 23:38:35;;;;;;;155.30;71.70;;;;;;;-0.25;66.56;99835.99;212504;1324;139404;-58
2021/12/12 23:49:13;;;;;;;155.10;72.80;;;;;;;-0.25;66.63;99828.33;213453;1325;140016;-58
2021/12/12 23:54:22;;;;;;;153.60;71.70;;;;;;;-0.27;66.57;99836.36;212783;1321;140211;-58
2021/12/12 23:59:33;;;;;;;143.60;69.10;;;;;;;-0.31;66.39;99835.16;212350;1322;139677;-61
